Time;durP1;ratioP1;P1;durP2;ratioP2;P2;SDS_P1;SDS_P2;PMS_P1;PMS_P2;Temp;Humidity;BMP_temperature;BMP_pressure;BME280_temperature;BME280_humidity;BME280_pressure;Samples;Min_cycle;Max_cycle;Signal;HPM_P1;HPM_P2
2022/11/08 00:02:19;;;;;;;7.40;4.68;;;;;;;;;;5001278;28;20053;-69
2022/11/08 00:04:45;;;;;;;7.00;4.75;;;;;;;;;;5012612;28;20052;-69
2022/11/08 00:15:28;;;;;;;11.43;6.20;;;;;;;;;;5012698;28;20046;-69
2022/11/08 00:17:55;;;;;;;10.70;5.55;;;;;;;;;;5012085;28;20525;-69
2022/11/08 00:20:21;;;;;;;8.75;5.97;;;;;;;;;;5012047;28;20088;-69
2022/11/08 00:22:48;;;;;;;7.47;5.43;;;;;;;;;;5012401;28;20177;-69
2022/11/08 00:25:15;;;;;;;6.88;5.28;;;;;;;;;;5012996;28;20236;-69
2022/11/08 00:27:41;;;;;;;8.68;5.20;;;;;;;;;;5012369;28;20096;-69
2022/11/08 00:30:08;;;;;;;8.35;6.22;;;;;;;;;;5011922;28;20402;-69
2022/11/08 00:32:35;;;;;;;9.75;5.20;;;;;;;;;;5012198;28;20050;-69
2022/11/08 00:35:02;;;;;;;8.25;5.55;;;;;;;;;;5012161;28;20050;-69
2022/11/08 00:37:28;;;;;;;9.77;6.00;;;;;;;;;;5012437;28;20111;-69
2022/11/08 00:39:55;;;;;;;8.02;5.13;;;;;;;;;;5011701;28;20104;-69
2022/11/08 00:42:22;;;;;;;12.88;5.90;;;;;;;;;;5012181;28;20057;-69
2022/11/08 00:44:48;;;;;;;9.20;5.70;;;;;;;;;;5012402;28;20450;-69
2022/11/08 00:47:15;;;;;;;6.60;5.28;;;;;;;;;;5011920;28;20050;-69
2022/11/08 00:49:42;;;;;;;7.25;5.18;;;;;;;;;;5011832;28;20054;-69
2022/11/08 00:52:08;;;;;;;8.50;5.57;;;;;;;;;;5012212;28;20127;-69
2022/11/08 00:54:35;;;;;;;9.45;5.55;;;;;;;;;;5012028;28;20073;-69
2022/11/08 00:57:02;;;;;;;7.47;5.75;;;;;;;;;;5012008;28;20423;-69
2022/11/08 00:59:28;;;;;;;8.50;5.47;;;;;;;;;;5011090;28;20053;-69
2022/11/08 01:01:55;;;;;;;6.60;5.60;;;;;;;;;;5011915;28;20100;-69
2022/11/08 01:04:22;;;;;;;8.98;6.35;;;;;;;;;;5012272;28;20054;-69
2022/11/08 01:06:48;;;;;;;7.32;5.43;;;;;;;;;;5012013;28;20100;-69
2022/11/08 01:09:15;;;;;;;6.57;5.70;;;;;;;;;;5011516;28;20537;-69
2022/11/08 01:11:45;;;;;;;8.02;5.18;;;;;;;;;;5012064;28;20050;-69
2022/11/08 01:14:12;;;;;;;9.32;5.95;;;;;;;;;;5010788;28;20053;-69
2022/11/08 01:16:39;;;;;;;10.25;6.53;;;;;;;;;;5011701;28;20053;-69
2022/11/08 01:19:06;;;;;;;10.00;6.57;;;;;;;;;;5011249;28;20046;-69
2022/11/08 01:21:32;;;;;;;12.20;7.78;;;;;;;;;;5012033;28;20045;-69
2022/11/08 01:23:59;;;;;;;12.38;6.47;;;;;;;;;;5026857;28;20054;-69
2022/11/08 01:26:27;;;;;;;9.55;6.78;;;;;;;;;;5012013;28;20073;-69
2022/11/08 01:28:54;;;;;;;10.07;6.30;;;;;;;;;;5011179;28;20104;-69
2022/11/08 01:31:23;;;;;;;9.20;5.78;;;;;;;;;;5011692;28;20096;-69
2022/11/08 01:33:50;;;;;;;8.63;5.72;;;;;;;;;;5011539;28;20045;-69
2022/11/08 01:36:20;;;;;;;7.88;5.13;;;;;;;;;;5011953;28;20096;-69
2022/11/08 01:38:47;;;;;;;9.55;5.90;;;;;;;;;;5025928;28;20128;-69
2022/11/08 01:41:14;;;;;;;9.35;5.32;;;;;;;;;;5011732;28;20472;-69
2022/11/08 01:43:45;;;;;;;7.63;4.88;;;;;;;;;;5011345;28;20050;-69
2022/11/08 01:46:18;;;;;;;10.52;5.80;;;;;;;;;;5011765;28;20054;-69
2022/11/08 01:49:02;;;;;;;7.95;5.47;;;;;;;;;;5025706;28;20054;-69
2022/11/08 01:51:31;;;;;;;8.10;4.93;;;;;;;;;;5011743;28;20449;-69
2022/11/08 01:53:58;;;;;;;8.45;5.18;;;;;;;;;;5011284;28;20050;-69
2022/11/08 01:56:24;;;;;;;7.47;5.07;;;;;;;;;;5010152;28;20046;-69
2022/11/08 01:58:51;;;;;;;9.20;5.57;;;;;;;;;;5025942;28;20046;-69
2022/11/08 02:01:17;;;;;;;8.13;5.03;;;;;;;;;;5011571;28;20054;-69
2022/11/08 02:03:45;;;;;;;8.13;5.13;;;;;;;;;;5026409;28;20050;-69
2022/11/08 02:06:12;;;;;;;10.43;5.45;;;;;;;;;;5011434;28;20053;-69
2022/11/08 02:08:40;;;;;;;7.45;5.30;;;;;;;;;;5009375;28;20120;-69
2022/11/08 02:11:08;;;;;;;6.47;4.97;;;;;;;;;;5013905;28;20053;-69
2022/11/08 02:13:35;;;;;;;9.60;5.25;;;;;;;;;;5013545;28;20501;-69
2022/11/08 02:16:05;;;;;;;7.40;5.18;;;;;;;;;;5029923;28;20077;-69
2022/11/08 02:18:31;;;;;;;7.35;5.07;;;;;;;;;;5028865;28;20080;-69
2022/11/08 02:21:11;;;;;;;8.20;5.63;;;;;;;;;;5013442;28;20069;-69
2022/11/08 02:23:53;;;;;;;7.07;5.10;;;;;;;;;;5013582;28;20480;-69
2022/11/08 02:26:25;;;;;;;9.38;4.90;;;;;;;;;;5014670;28;20072;-69
2022/11/08 02:28:51;;;;;;;10.88;5.30;;;;;;;;;;5029285;28;20050;-69
2022/11/08 02:31:18;;;;;;;9.30;5.35;;;;;;;;;;5014490;28;20065;-69
2022/11/08 02:33:46;;;;;;;6.30;5.03;;;;;;;;;;5014723;28;20053;-69
2022/11/08 02:36:18;;;;;;;7.65;5.07;;;;;;;;;;5014598;28;20046;-69
2022/11/08 02:38:47;;;;;;;9.32;4.82;;;;;;;;;;5012807;28;20509;-69
2022/11/08 02:41:13;;;;;;;8.60;5.25;;;;;;;;;;5013114;28;20057;-69
2022/11/08 02:43:40;;;;;;;9.48;4.95;;;;;;;;;;5014300;28;20054;-69
2022/11/08 02:46:06;;;;;;;7.13;5.07;;;;;;;;;;5014019;28;20104;-69
2022/11/08 02:48:33;;;;;;;7.55;5.13;;;;;;;;;;5013977;28;20409;-69
2022/11/08 02:51:00;;;;;;;8.93;5.40;;;;;;;;;;5014289;28;20049;-69
2022/11/08 02:53:26;;;;;;;8.50;4.90;;;;;;;;;;5014319;28;20094;-69
2022/11/08 02:55:53;;;;;;;8.50;4.78;;;;;;;;;;5014391;28;20413;-69
2022/11/08 02:58:20;;;;;;;9.23;5.22;;;;;;;;;;5013445;28;20084;-69
2022/11/08 03:00:47;;;;;;;7.68;4.97;;;;;;;;;;5015009;28;20081;-69
2022/11/08 03:03:13;;;;;;;10.38;5.15;;;;;;;;;;5017048;28;20034;-70
2022/11/08 03:05:42;;;;;;;8.45;5.40;;;;;;;;;;4997883;28;20528;-69
2022/11/08 03:08:08;;;;;;;7.07;5.18;;;;;;;;;;5000718;28;20064;-69
2022/11/08 03:10:35;;;;;;;10.20;5.40;;;;;;;;;;5012599;28;20516;-69
2022/11/08 03:13:03;;;;;;;9.65;5.05;;;;;;;;;;5013895;28;20053;-69
2022/11/08 03:15:31;;;;;;;7.95;5.53;;;;;;;;;;5008857;28;20045;-69
2022/11/08 03:17:58;;;;;;;9.18;5.18;;;;;;;;;;4994855;28;20433;-69
2022/11/08 03:20:25;;;;;;;7.45;4.70;;;;;;;;;;5007257;28;20058;-67
2022/11/08 03:23:04;;;;;;;6.80;4.78;;;;;;;;;;5013751;28;20046;-68
2022/11/08 03:25:30;;;;;;;6.03;4.93;;;;;;;;;;5013670;28;20046;-68
2022/11/08 03:28:01;;;;;;;7.90;5.20;;;;;;;;;;5013047;28;20057;-68
2022/11/08 03:30:28;;;;;;;8.43;4.68;;;;;;;;;;5013402;28;20507;-68
2022/11/08 03:32:55;;;;;;;6.80;4.82;;;;;;;;;;5013883;28;20421;-68
2022/11/08 03:35:22;;;;;;;8.13;5.22;;;;;;;;;;5013522;28;20046;-68
2022/11/08 03:37:53;;;;;;;5.78;4.45;;;;;;;;;;5012818;28;20049;-68
2022/11/08 03:40:19;;;;;;;8.32;4.95;;;;;;;;;;5013102;28;20049;-68
2022/11/08 03:42:46;;;;;;;8.35;5.85;;;;;;;;;;5013606;28;20177;-68
2022/11/08 03:45:14;;;;;;;9.32;5.75;;;;;;;;;;5013450;28;20050;-68
2022/11/08 03:47:44;;;;;;;8.20;5.28;;;;;;;;;;5013787;28;20567;-68
2022/11/08 03:50:12;;;;;;;8.77;5.55;;;;;;;;;;5016671;28;20077;-68
2022/11/08 03:52:43;;;;;;;7.22;4.70;;;;;;;;;;5029746;28;20053;-68
2022/11/08 03:55:10;;;;;;;9.05;4.45;;;;;;;;;;5029323;28;20108;-68
2022/11/08 03:57:38;;;;;;;6.93;4.72;;;;;;;;;;5017342;28;20054;-68
2022/11/08 04:00:06;;;;;;;5.63;4.70;;;;;;;;;;5009544;28;20395;-68
2022/11/08 04:02:33;;;;;;;8.10;5.55;;;;;;;;;;5008802;28;20054;-68
2022/11/08 04:05:00;;;;;;;10.65;4.80;;;;;;;;;;5008694;28;20046;-68
2022/11/08 04:07:27;;;;;;;7.72;5.20;;;;;;;;;;5006843;28;20054;-68
2022/11/08 04:09:54;;;;;;;7.90;4.95;;;;;;;;;;5007776;28;20050;-68
2022/11/08 04:15:14;;;;;;;7.45;5.57;;;;;;;;;;5009438;28;20054;-68
2022/11/08 04:23:13;;;;;;;9.65;6.57;;;;;;;;;;5006960;28;20096;-68
2022/11/08 04:25:39;;;;;;;8.90;5.82;;;;;;;;;;5004676;28;20046;-68
2022/11/08 04:28:06;;;;;;;8.55;6.30;;;;;;;;;;5004901;28;20085;-68
2022/11/08 04:30:33;;;;;;;9.52;7.15;;;;;;;;;;5011130;28;20046;-68
2022/11/08 04:33:01;;;;;;;9.48;6.95;;;;;;;;;;5026162;28;20054;-68
2022/11/08 04:35:28;;;;;;;6.88;5.82;;;;;;;;;;5024534;28;20049;-68
2022/11/08 04:37:59;;;;;;;10.18;7.10;;;;;;;;;;5012678;28;20069;-69
2022/11/08 04:40:26;;;;;;;7.93;5.97;;;;;;;;;;5012453;28;20050;-69
2022/11/08 04:42:53;;;;;;;11.32;6.57;;;;;;;;;;5012655;28;20508;-69
2022/11/08 04:45:20;;;;;;;9.43;6.25;;;;;;;;;;5012488;28;20049;-69
2022/11/08 04:47:47;;;;;;;12.48;6.00;;;;;;;;;;5011955;28;20459;-69
2022/11/08 04:50:14;;;;;;;7.72;5.80;;;;;;;;;;5012482;28;20452;-69
2022/11/08 04:52:41;;;;;;;7.88;6.28;;;;;;;;;;5012461;28;20493;-69
2022/11/08 04:55:08;;;;;;;9.48;5.75;;;;;;;;;;5012281;28;20050;-69
2022/11/08 04:57:34;;;;;;;7.07;5.70;;;;;;;;;;5012427;28;20054;-69
2022/11/08 05:00:01;;;;;;;8.00;5.82;;;;;;;;;;5011765;28;20050;-69
2022/11/08 05:02:28;;;;;;;7.68;6.03;;;;;;;;;;5012487;28;20054;-69
2022/11/08 05:04:54;;;;;;;8.15;5.68;;;;;;;;;;5012578;28;20085;-69
2022/11/08 05:07:21;;;;;;;8.18;5.60;;;;;;;;;;5012026;28;20049;-69
2022/11/08 05:09:48;;;;;;;7.22;5.07;;;;;;;;;;5011375;28;20054;-69
2022/11/08 05:12:14;;;;;;;5.55;4.57;;;;;;;;;;5012171;28;20077;-69
2022/11/08 05:14:41;;;;;;;7.40;4.55;;;;;;;;;;5012008;28;20078;-69
2022/11/08 05:17:07;;;;;;;7.90;4.47;;;;;;;;;;5012575;28;20046;-70
2022/11/08 05:25:04;;;;;;;7.68;4.53;;;;;;;;;;5010461;28;20053;-70
2022/11/08 05:27:33;;;;;;;5.32;4.30;;;;;;;;;;5007287;28;20536;-70
2022/11/08 05:29:59;;;;;;;5.45;3.97;;;;;;;;;;4991059;28;20058;-70
2022/11/08 05:32:26;;;;;;;5.40;4.22;;;;;;;;;;4999099;28;20468;-69
2022/11/08 05:34:54;;;;;;;6.82;4.65;;;;;;;;;;5004346;28;20105;-70
2022/11/08 05:37:20;;;;;;;7.40;3.92;;;;;;;;;;4992536;28;20047;-70
2022/11/08 05:39:47;;;;;;;6.75;4.88;;;;;;;;;;4991670;28;20078;-69
2022/11/08 05:42:13;;;;;;;7.95;4.80;;;;;;;;;;5000682;28;20421;-70
2022/11/08 05:44:40;;;;;;;6.57;4.38;;;;;;;;;;5013785;28;20092;-70
2022/11/08 05:47:07;;;;;;;5.75;4.25;;;;;;;;;;5015520;28;20050;-70
2022/11/08 05:49:33;;;;;;;5.63;4.22;;;;;;;;;;5014808;28;20089;-69
2022/11/08 05:52:00;;;;;;;9.00;5.70;;;;;;;;;;5015689;28;20081;-70
2022/11/08 05:54:27;;;;;;;10.15;5.32;;;;;;;;;;5016449;28;20316;-69
2022/11/08 05:56:53;;;;;;;13.75;5.95;;;;;;;;;;5015814;28;20421;-69
2022/11/08 05:59:20;;;;;;;11.00;6.38;;;;;;;;;;5014758;28;20053;-69
2022/11/08 06:01:46;;;;;;;7.75;5.20;;;;;;;;;;5015381;28;20103;-70
2022/11/08 06:04:13;;;;;;;8.65;5.50;;;;;;;;;;5015482;28;20096;-69
2022/11/08 06:06:40;;;;;;;9.48;5.63;;;;;;;;;;5015545;28;20108;-70
2022/11/08 06:09:06;;;;;;;9.07;5.70;;;;;;;;;;5015553;28;20053;-69
2022/11/08 06:11:33;;;;;;;6.93;4.13;;;;;;;;;;5016137;28;20049;-69
2022/11/08 06:13:59;;;;;;;6.65;4.97;;;;;;;;;;5015882;28;20053;-70
2022/11/08 06:16:26;;;;;;;6.45;5.20;;;;;;;;;;5015291;28;20045;-70
2022/11/08 06:18:53;;;;;;;5.90;4.40;;;;;;;;;;5015951;28;20476;-70
2022/11/08 06:21:20;;;;;;;9.57;4.20;;;;;;;;;;5015760;28;20061;-70
2022/11/08 06:23:47;;;;;;;8.93;4.10;;;;;;;;;;5014097;28;20049;-69
2022/11/08 06:26:14;;;;;;;6.50;3.58;;;;;;;;;;5013228;28;20046;-69
2022/11/08 06:28:40;;;;;;;6.30;3.80;;;;;;;;;;5013890;28;20085;-69
2022/11/08 06:31:07;;;;;;;7.68;3.55;;;;;;;;;;5014716;28;20084;-70
2022/11/08 06:33:33;;;;;;;6.28;3.47;;;;;;;;;;5014860;28;20468;-70
2022/11/08 06:36:00;;;;;;;7.68;3.63;;;;;;;;;;5014437;28;20455;-69
2022/11/08 06:38:27;;;;;;;6.47;3.92;;;;;;;;;;5013909;28;20092;-69
2022/11/08 06:40:58;;;;;;;6.32;3.97;;;;;;;;;;5014222;28;20177;-69
2022/11/08 06:43:24;;;;;;;6.45;4.03;;;;;;;;;;5014403;28;20076;-69
2022/11/08 06:45:51;;;;;;;7.75;4.65;;;;;;;;;;5011582;28;20133;-69
2022/11/08 06:48:18;;;;;;;9.68;3.90;;;;;;;;;;5011726;28;20054;-69
2022/11/08 06:50:45;;;;;;;8.63;3.88;;;;;;;;;;5012105;28;20068;-69
2022/11/08 06:53:12;;;;;;;6.05;4.25;;;;;;;;;;5012452;28;20056;-69
2022/11/08 06:55:39;;;;;;;5.82;3.63;;;;;;;;;;5011340;28;20135;-69
2022/11/08 06:58:06;;;;;;;9.13;4.40;;;;;;;;;;5010939;28;20111;-69
2022/11/08 07:00:32;;;;;;;5.70;3.58;;;;;;;;;;5012260;28;20061;-68
2022/11/08 07:03:01;;;;;;;7.03;3.60;;;;;;;;;;5012146;28;20058;-68
2022/11/08 07:05:29;;;;;;;7.15;3.67;;;;;;;;;;5012176;28;20421;-68
2022/11/08 07:07:57;;;;;;;5.85;3.40;;;;;;;;;;5011006;28;20056;-68
2022/11/08 07:10:27;;;;;;;7.03;3.53;;;;;;;;;;5011685;28;20105;-68
2022/11/08 07:13:14;;;;;;;8.05;3.38;;;;;;;;;;5011074;28;20421;-69
2022/11/08 07:15:41;;;;;;;5.47;3.33;;;;;;;;;;5008831;28;20108;-68
2022/11/08 07:18:11;;;;;;;7.03;3.58;;;;;;;;;;4991523;28;20055;-68
2022/11/08 07:20:39;;;;;;;4.95;3.38;;;;;;;;;;4992004;28;20458;-68
2022/11/08 07:23:06;;;;;;;5.57;3.80;;;;;;;;;;5005400;28;20465;-69
2022/11/08 07:25:32;;;;;;;8.63;4.03;;;;;;;;;;5011260;28;20080;-69
2022/11/08 07:28:03;;;;;;;7.18;3.85;;;;;;;;;;5011034;28;20054;-69
2022/11/08 07:30:30;;;;;;;5.90;4.07;;;;;;;;;;5011312;28;20057;-69
2022/11/08 07:32:57;;;;;;;5.65;4.13;;;;;;;;;;5011473;28;20053;-69
2022/11/08 07:35:24;;;;;;;10.15;4.30;;;;;;;;;;5011879;28;20050;-69
2022/11/08 07:37:51;;;;;;;7.93;4.55;;;;;;;;;;5012091;28;20100;-69
2022/11/08 07:40:18;;;;;;;4.85;3.50;;;;;;;;;;5011182;28;20081;-70
2022/11/08 07:42:44;;;;;;;6.38;4.28;;;;;;;;;;5011363;28;20046;-70
2022/11/08 07:45:31;;;;;;;9.52;4.35;;;;;;;;;;5010609;28;20542;-69
2022/11/08 07:48:02;;;;;;;7.30;3.80;;;;;;;;;;5012521;28;20053;-72
2022/11/08 07:50:37;;;;;;;6.70;3.33;;;;;;;;;;4991119;28;20423;-75
2022/11/08 07:53:04;;;;;;;6.20;3.47;;;;;;;;;;5008897;28;20054;-76
2022/11/08 07:55:30;;;;;;;5.70;3.25;;;;;;;;;;4993603;28;20050;-69
2022/11/08 07:58:00;;;;;;;4.88;3.40;;;;;;;;;;4992322;28;20046;-77
2022/11/08 08:00:29;;;;;;;5.10;3.40;;;;;;;;;;4993792;28;20105;-74
2022/11/08 08:03:02;;;;;;;5.95;3.28;;;;;;;;;;4984047;28;20580;-71
2022/11/08 08:05:32;;;;;;;6.75;3.63;;;;;;;;;;4989597;28;20049;-74
2022/11/08 08:08:00;;;;;;;6.07;3.65;;;;;;;;;;4997794;28;20054;-72
2022/11/08 08:10:34;;;;;;;5.63;3.90;;;;;;;;;;5001263;28;20050;-77
2022/11/08 08:13:03;;;;;;;5.13;3.50;;;;;;;;;;4966204;28;20058;-75
2022/11/08 08:15:30;;;;;;;5.88;2.92;;;;;;;;;;5003584;28;20194;-72
2022/11/08 08:17:59;;;;;;;4.30;2.97;;;;;;;;;;5003759;28;20112;-74
2022/11/08 08:20:25;;;;;;;4.45;2.65;;;;;;;;;;4999014;28;20049;-73
2022/11/08 08:22:52;;;;;;;6.68;3.10;;;;;;;;;;5004395;28;20056;-74
2022/11/08 08:25:19;;;;;;;5.60;3.15;;;;;;;;;;5002449;28;20120;-73
2022/11/08 08:27:49;;;;;;;10.57;3.50;;;;;;;;;;4999385;28;20089;-68
2022/11/08 08:30:16;;;;;;;7.65;4.00;;;;;;;;;;4999077;28;20412;-67
2022/11/08 08:32:44;;;;;;;10.32;3.17;;;;;;;;;;5006957;28;20501;-68
2022/11/08 08:35:18;;;;;;;5.15;3.00;;;;;;;;;;5003077;28;20046;-68
2022/11/08 08:37:45;;;;;;;6.70;3.05;;;;;;;;;;5001451;28;20100;-68
2022/11/08 08:40:12;;;;;;;4.95;3.38;;;;;;;;;;4998874;28;20063;-67
2022/11/08 08:42:38;;;;;;;8.88;3.53;;;;;;;;;;4998210;28;20062;-68
2022/11/08 08:45:05;;;;;;;5.15;2.92;;;;;;;;;;4998016;28;20518;-68
2022/11/08 08:47:39;;;;;;;7.55;2.92;;;;;;;;;;5002383;28;20073;-68
2022/11/08 08:50:07;;;;;;;5.72;3.13;;;;;;;;;;4998795;28;20046;-68
2022/11/08 08:52:34;;;;;;;6.78;2.80;;;;;;;;;;4997742;28;20104;-68
2022/11/08 08:55:01;;;;;;;3.63;2.40;;;;;;;;;;4999286;28;20078;-67
2022/11/08 08:57:27;;;;;;;3.92;2.58;;;;;;;;;;4999324;28;20088;-68
2022/11/08 08:59:54;;;;;;;6.18;2.67;;;;;;;;;;5001064;28;20050;-68
2022/11/08 09:02:41;;;;;;;4.68;3.10;;;;;;;;;;4998198;28;20129;-68
2022/11/08 09:05:09;;;;;;;3.67;2.72;;;;;;;;;;4997427;28;20467;-69
2022/11/08 09:07:35;;;;;;;6.90;2.78;;;;;;;;;;4998171;28;20042;-67
2022/11/08 09:10:03;;;;;;;5.30;2.63;;;;;;;;;;4996446;28;20125;-67
2022/11/08 09:12:30;;;;;;;4.63;2.35;;;;;;;;;;4999221;28;20057;-68
2022/11/08 09:14:57;;;;;;;3.95;2.30;;;;;;;;;;4997534;28;20112;-68
2022/11/08 09:17:26;;;;;;;3.80;2.30;;;;;;;;;;5001928;28;20052;-68
2022/11/08 09:19:52;;;;;;;3.85;2.28;;;;;;;;;;5001453;28;20417;-68
2022/11/08 09:22:22;;;;;;;3.05;2.00;;;;;;;;;;5005076;28;20513;-68
2022/11/08 09:24:49;;;;;;;3.72;1.88;;;;;;;;;;5004056;28;20351;-68
2022/11/08 09:27:16;;;;;;;2.90;1.70;;;;;;;;;;5002079;28;20046;-68
2022/11/08 09:29:42;;;;;;;3.08;1.88;;;;;;;;;;5002538;28;20109;-66
2022/11/08 09:32:09;;;;;;;8.27;2.13;;;;;;;;;;5003777;28;20465;-65
2022/11/08 09:34:36;;;;;;;8.85;2.80;;;;;;;;;;5003212;28;20112;-66
2022/11/08 09:37:03;;;;;;;3.88;2.47;;;;;;;;;;5000557;28;20081;-66
2022/11/08 09:39:29;;;;;;;5.57;1.92;;;;;;;;;;5004259;28;20046;-66
2022/11/08 09:42:28;;;;;;;2.92;2.05;;;;;;;;;;5000658;28;20050;-66
2022/11/08 09:45:21;;;;;;;3.85;2.10;;;;;;;;;;5001932;28;20050;-67
2022/11/08 09:47:50;;;;;;;2.90;2.45;;;;;;;;;;4983821;28;20515;-68
2022/11/08 09:50:29;;;;;;;3.30;1.95;;;;;;;;;;5004924;28;20052;-66
2022/11/08 09:53:10;;;;;;;2.20;1.67;;;;;;;;;;5004074;28;20054;-66
2022/11/08 09:55:46;;;;;;;4.70;1.65;;;;;;;;;;5001012;28;20054;-66
2022/11/08 09:58:36;;;;;;;7.68;2.10;;;;;;;;;;5003142;28;20038;-66
2022/11/08 10:01:03;;;;;;;6.53;1.98;;;;;;;;;;5002494;28;20060;-67
2022/11/08 10:03:30;;;;;;;3.95;1.88;;;;;;;;;;4999602;28;21173;-66
2022/11/08 10:06:18;;;;;;;3.20;2.00;;;;;;;;;;5001857;28;20050;-66
2022/11/08 10:09:06;;;;;;;7.38;2.00;;;;;;;;;;5001886;28;20053;-66
2022/11/08 10:11:36;;;;;;;3.58;2.03;;;;;;;;;;5004299;28;20073;-66
2022/11/08 10:14:08;;;;;;;4.00;1.90;;;;;;;;;;5001359;28;20047;-66
2022/11/08 10:16:57;;;;;;;5.78;2.13;;;;;;;;;;5003675;28;20052;-66
2022/11/08 10:19:56;;;;;;;3.40;1.88;;;;;;;;;;4995609;28;20108;-67
2022/11/08 10:22:36;;;;;;;4.43;1.63;;;;;;;;;;5002002;28;20042;-66
2022/11/08 10:25:23;;;;;;;6.07;1.63;;;;;;;;;;5002231;28;20042;-66
2022/11/08 10:30:54;;;;;;;3.47;1.98;;;;;;;;;;4998564;28;20117;-66
2022/11/08 10:33:41;;;;;;;2.80;1.75;;;;;;;;;;5007866;28;20049;-66
2022/11/08 10:36:13;;;;;;;4.53;1.88;;;;;;;;;;5001020;28;20054;-68
2022/11/08 10:39:03;;;;;;;6.78;1.92;;;;;;;;;;5015319;28;20058;-67
2022/11/08 10:41:39;;;;;;;3.45;1.90;;;;;;;;;;5020131;28;20057;-66
2022/11/08 10:44:18;;;;;;;2.95;1.73;;;;;;;;;;5019735;28;20050;-66
2022/11/08 10:46:59;;;;;;;2.92;1.77;;;;;;;;;;5002535;28;20064;-65
2022/11/08 10:49:33;;;;;;;2.78;1.60;;;;;;;;;;5013523;28;20045;-63
2022/11/08 10:52:12;;;;;;;5.25;1.95;;;;;;;;;;5016674;28;20050;-65
2022/11/08 10:54:52;;;;;;;4.40;1.70;;;;;;;;;;5026690;28;20062;-68
2022/11/08 10:57:30;;;;;;;1.70;1.48;;;;;;;;;;5024937;28;20081;-70
2022/11/08 11:00:24;;;;;;;6.00;1.73;;;;;;;;;;5017304;28;20050;-71
2022/11/08 11:03:00;;;;;;;4.93;1.80;;;;;;;;;;5010035;28;20041;-75
2022/11/08 11:05:43;;;;;;;3.80;1.75;;;;;;;;;;5028512;28;20042;-78
2022/11/08 11:08:12;;;;;;;3.42;1.67;;;;;;;;;;5030557;28;20050;-73
2022/11/08 11:10:47;;;;;;;2.58;1.88;;;;;;;;;;5028517;28;20089;-74
2022/11/08 11:15:52;;;;;;;2.88;1.50;;;;;;;;;;5010871;28;20077;-74
2022/11/08 11:18:46;;;;;;;3.45;1.60;;;;;;;;;;4979562;28;20571;-74
2022/11/08 11:21:18;;;;;;;4.25;1.70;;;;;;;;;;5008376;28;20052;-75
2022/11/08 11:23:45;;;;;;;2.20;1.40;;;;;;;;;;4991857;28;20047;-74
2022/11/08 11:26:31;;;;;;;3.03;1.63;;;;;;;;;;4975086;28;20078;-75
2022/11/08 11:29:00;;;;;;;2.85;1.52;;;;;;;;;;4989668;28;20051;-74
2022/11/08 11:31:27;;;;;;;3.08;1.55;;;;;;;;;;4991748;28;20137;-74
2022/11/08 11:33:54;;;;;;;2.85;1.30;;;;;;;;;;4990827;28;20047;-75
2022/11/08 11:36:22;;;;;;;3.88;1.30;;;;;;;;;;4975529;28;20057;-79
2022/11/08 11:39:06;;;;;;;1.80;1.23;;;;;;;;;;4990519;28;20137;-74
2022/11/08 11:41:36;;;;;;;3.83;2.47;;;;;;;;;;5005907;28;20053;-75
2022/11/08 11:44:15;;;;;;;2.65;2.10;;;;;;;;;;5007387;28;20055;-74
2022/11/08 11:47:01;;;;;;;4.60;1.52;;;;;;;;;;4993279;28;20053;-74
2022/11/08 11:49:29;;;;;;;2.95;1.48;;;;;;;;;;4998888;28;20422;-74
2022/11/08 11:51:57;;;;;;;4.43;1.40;;;;;;;;;;5007005;28;20050;-74
2022/11/08 11:54:29;;;;;;;4.22;1.50;;;;;;;;;;4991227;28;20062;-74
2022/11/08 11:56:57;;;;;;;3.85;1.67;;;;;;;;;;4991840;28;20061;-82
2022/11/08 11:59:42;;;;;;;2.33;1.50;;;;;;;;;;4991060;28;20053;-73
2022/11/08 12:02:09;;;;;;;2.17;1.60;;;;;;;;;;4990845;28;20054;-74
2022/11/08 12:05:07;;;;;;;5.07;1.50;;;;;;;;;;4990713;28;20050;-74
2022/11/08 12:07:35;;;;;;;4.72;1.67;;;;;;;;;;4990447;28;20507;-74
2022/11/08 12:10:24;;;;;;;2.70;1.70;;;;;;;;;;4990043;28;20058;-74
2022/11/08 12:13:07;;;;;;;2.90;1.40;;;;;;;;;;4995403;28;20059;-73
2022/11/08 12:15:44;;;;;;;4.03;1.40;;;;;;;;;;4972713;28;20049;-74
2022/11/08 12:18:40;;;;;;;2.28;1.30;;;;;;;;;;4973175;28;20042;-73
2022/11/08 12:21:13;;;;;;;3.08;1.52;;;;;;;;;;4993647;28;20053;-75
2022/11/08 12:23:57;;;;;;;3.33;1.38;;;;;;;;;;4979755;28;20058;-74
2022/11/08 12:26:51;;;;;;;2.97;1.00;;;;;;;;;;4976550;28;20051;-74
2022/11/08 12:29:41;;;;;;;3.80;1.25;;;;;;;;;;4988581;28;20058;-74
2022/11/08 12:32:22;;;;;;;1.48;1.38;;;;;;;;;;4990196;28;20066;-73
2022/11/08 12:35:18;;;;;;;3.70;1.10;;;;;;;;;;4984011;28;20075;-74
2022/11/08 12:37:53;;;;;;;1.48;1.15;;;;;;;;;;4988703;28;20046;-75
2022/11/08 12:40:30;;;;;;;3.30;1.40;;;;;;;;;;4973911;28;20066;-74
2022/11/08 12:43:20;;;;;;;2.55;1.42;;;;;;;;;;4978576;28;20062;-77
2022/11/08 12:46:08;;;;;;;1.92;1.27;;;;;;;;;;4962794;28;20205;-76
2022/11/08 12:49:01;;;;;;;2.20;1.20;;;;;;;;;;4973716;28;20046;-77
2022/11/08 12:51:49;;;;;;;2.00;1.15;;;;;;;;;;4990196;28;20046;-73
2022/11/08 12:54:31;;;;;;;3.28;1.40;;;;;;;;;;4981444;28;20050;-74
2022/11/08 12:57:01;;;;;;;3.83;1.48;;;;;;;;;;4975163;28;20051;-74
2022/11/08 12:59:33;;;;;;;2.10;1.17;;;;;;;;;;5005502;28;20047;-74
2022/11/08 13:02:00;;;;;;;2.40;1.35;;;;;;;;;;4989365;28;20054;-73
2022/11/08 13:04:45;;;;;;;2.83;1.52;;;;;;;;;;4982538;28;20060;-74
2022/11/08 13:07:23;;;;;;;3.13;1.45;;;;;;;;;;5004572;28;20431;-73
2022/11/08 13:09:59;;;;;;;2.50;1.30;;;;;;;;;;4990303;28;20506;-73
2022/11/08 13:12:52;;;;;;;2.72;1.70;;;;;;;;;;4983649;28;20249;-74
2022/11/08 13:15:23;;;;;;;3.45;1.58;;;;;;;;;;4980725;28;20051;-74
2022/11/08 13:18:06;;;;;;;2.28;1.23;;;;;;;;;;4989361;28;20047;-74
2022/11/08 13:20:51;;;;;;;4.13;1.83;;;;;;;;;;4987170;28;20054;-80
2022/11/08 13:23:25;;;;;;;2.75;1.50;;;;;;;;;;4989816;28;20359;-76
2022/11/08 13:25:52;;;;;;;7.43;1.88;;;;;;;;;;4983704;28;20055;-75
2022/11/08 13:28:39;;;;;;;7.85;2.83;;;;;;;;;;4957865;28;20106;-74
2022/11/08 13:31:29;;;;;;;11.95;4.75;;;;;;;;;;4990119;28;20399;-74
2022/11/08 13:34:05;;;;;;;8.38;4.28;;;;;;;;;;4990312;28;20050;-74
2022/11/08 13:37:04;;;;;;;5.45;3.60;;;;;;;;;;4996657;28;20057;-73
2022/11/08 13:39:48;;;;;;;4.35;2.63;;;;;;;;;;4994204;28;20050;-74
2022/11/08 13:42:15;;;;;;;6.50;2.60;;;;;;;;;;4990275;28;20125;-74
2022/11/08 13:44:54;;;;;;;3.45;2.13;;;;;;;;;;4986787;28;20053;-74
2022/11/08 13:47:33;;;;;;;4.80;2.80;;;;;;;;;;5000526;28;20053;-74
2022/11/08 13:50:28;;;;;;;8.07;4.18;;;;;;;;;;4979936;28;20089;-73
2022/11/08 13:53:02;;;;;;;7.03;3.95;;;;;;;;;;4997598;28;20038;-74
2022/11/08 13:55:41;;;;;;;4.55;2.45;;;;;;;;;;4969398;28;20050;-74
2022/11/08 13:58:35;;;;;;;4.78;1.98;;;;;;;;;;4986262;28;20054;-74
2022/11/08 14:01:17;;;;;;;5.68;1.70;;;;;;;;;;4990229;28;20055;-74
2022/11/08 14:03:47;;;;;;;2.08;1.63;;;;;;;;;;4989819;28;20498;-74
2022/11/08 14:06:22;;;;;;;2.72;1.80;;;;;;;;;;4998251;28;20054;-74
2022/11/08 14:09:07;;;;;;;2.90;1.98;;;;;;;;;;5003810;28;20055;-75
2022/11/08 14:11:59;;;;;;;4.28;2.22;;;;;;;;;;4993232;28;20430;-74
2022/11/08 14:14:35;;;;;;;4.53;2.10;;;;;;;;;;4991555;28;20050;-75
2022/11/08 14:17:04;;;;;;;3.17;1.90;;;;;;;;;;4999038;28;20043;-75
2022/11/08 14:19:32;;;;;;;4.05;2.47;;;;;;;;;;4998831;28;20414;-75
2022/11/08 14:22:00;;;;;;;5.43;2.10;;;;;;;;;;5000914;28;20532;-75
2022/11/08 14:24:29;;;;;;;2.20;1.63;;;;;;;;;;4996099;28;20054;-75
2022/11/08 14:26:56;;;;;;;3.60;1.67;;;;;;;;;;5017788;28;20050;-74
2022/11/08 14:29:23;;;;;;;6.20;2.13;;;;;;;;;;5014917;28;20038;-73
2022/11/08 14:32:05;;;;;;;4.38;1.55;;;;;;;;;;5018328;28;20115;-73
2022/11/08 14:34:37;;;;;;;3.10;1.73;;;;;;;;;;5001847;28;20038;-73
2022/11/08 14:37:05;;;;;;;2.95;1.70;;;;;;;;;;5011211;28;20046;-74
2022/11/08 14:39:35;;;;;;;4.10;1.85;;;;;;;;;;5010017;28;20038;-72
2022/11/08 14:42:03;;;;;;;3.10;1.73;;;;;;;;;;4988149;28;20069;-73
2022/11/08 14:44:30;;;;;;;2.63;1.50;;;;;;;;;;5012758;28;20062;-73
2022/11/08 14:46:57;;;;;;;3.80;1.63;;;;;;;;;;5000907;28;20042;-72
2022/11/08 14:49:36;;;;;;;4.07;1.70;;;;;;;;;;5002012;28;20038;-73
2022/11/08 14:52:16;;;;;;;2.85;1.70;;;;;;;;;;5034102;28;20027;-72
2022/11/08 14:54:46;;;;;;;5.00;2.63;;;;;;;;;;5033658;28;20054;-72
2022/11/08 14:57:40;;;;;;;5.68;1.83;;;;;;;;;;5014604;28;20046;-72
2022/11/08 15:00:13;;;;;;;5.97;1.90;;;;;;;;;;5010389;28;20082;-73
2022/11/08 15:02:41;;;;;;;4.72;1.80;;;;;;;;;;5018622;28;20034;-71
2022/11/08 15:05:29;;;;;;;4.18;2.33;;;;;;;;;;5001125;28;20086;-74
2022/11/08 15:07:59;;;;;;;3.50;1.88;;;;;;;;;;4987265;28;20042;-72
2022/11/08 15:10:26;;;;;;;3.00;1.88;;;;;;;;;;4993311;28;20458;-73
2022/11/08 15:12:53;;;;;;;3.38;1.60;;;;;;;;;;5029022;28;20053;-73
2022/11/08 15:15:25;;;;;;;3.50;1.85;;;;;;;;;;5017206;28;20482;-74
2022/11/08 15:18:25;;;;;;;4.65;1.70;;;;;;;;;;4978154;28;20065;-74
2022/11/08 15:21:00;;;;;;;2.72;1.85;;;;;;;;;;4988676;28;20046;-74
2022/11/08 15:23:46;;;;;;;2.70;1.50;;;;;;;;;;4952433;28;20055;-74
2022/11/08 15:26:24;;;;;;;2.45;1.60;;;;;;;;;;4994563;28;20437;-74
2022/11/08 15:29:05;;;;;;;3.40;1.70;;;;;;;;;;4983281;28;20054;-74
2022/11/08 15:31:40;;;;;;;3.78;1.60;;;;;;;;;;4992527;28;20058;-74
2022/11/08 15:34:29;;;;;;;5.32;1.85;;;;;;;;;;4982581;28;20053;-74
2022/11/08 15:36:56;;;;;;;2.80;1.70;;;;;;;;;;4979234;28;20073;-73
2022/11/08 15:39:30;;;;;;;4.50;1.88;;;;;;;;;;4992435;28;20047;-74